createdAt,value
2018-09-18T00:00:08.248Z,1010.60
2018-09-18T00:01:08.203Z,1010.59
2018-09-18T00:02:08.161Z,1010.59
2018-09-18T00:03:08.119Z,1010.56
2018-09-18T00:04:08.067Z,1010.56
2018-09-18T00:05:08.028Z,1010.58
2018-09-18T00:06:07.988Z,1010.58
2018-09-18T00:07:07.935Z,1010.52
2018-09-18T00:08:07.892Z,1010.53
2018-09-18T00:09:07.849Z,1010.52
2018-09-18T00:10:07.802Z,1010.56
2018-09-18T00:11:07.755Z,1010.52
2018-09-18T00:12:07.715Z,1010.51
2018-09-18T00:13:07.668Z,1010.46
2018-09-18T00:14:07.626Z,1010.46
2018-09-18T00:15:07.581Z,1010.47
2018-09-18T00:16:07.540Z,1010.39
2018-09-18T00:17:07.491Z,1010.41
2018-09-18T00:18:07.448Z,1010.44
2018-09-18T00:19:07.402Z,1010.42
2018-09-18T00:20:07.366Z,1010.37
2018-09-18T00:21:07.313Z,1010.36
2018-09-18T00:22:07.272Z,1010.34
2018-09-18T00:23:07.225Z,1010.38
2018-09-18T00:24:07.182Z,1010.35
2018-09-18T00:25:07.137Z,1010.34
2018-09-18T00:26:07.093Z,1010.33
2018-09-18T00:27:07.046Z,1010.35
2018-09-18T00:28:07.003Z,1010.31
2018-09-18T00:29:06.960Z,1010.32
2018-09-18T00:30:06.918Z,1010.30
2018-09-18T00:31:06.871Z,1010.29
2018-09-18T00:32:06.828Z,1010.30
2018-09-18T00:33:06.782Z,1010.33
2018-09-18T00:34:06.738Z,1010.24
2018-09-18T00:35:06.693Z,1010.28
2018-09-18T00:36:06.649Z,1010.28
2018-09-18T00:37:06.611Z,1010.26
2018-09-18T00:38:06.569Z,1010.28
2018-09-18T00:39:06.547Z,1010.23
2018-09-18T00:40:06.504Z,1010.21
2018-09-18T00:41:06.466Z,1010.16
2018-09-18T00:42:06.388Z,1010.22
2018-09-18T00:43:06.341Z,1010.18
2018-09-18T00:44:06.300Z,1010.21
2018-09-18T00:45:06.257Z,1010.15
2018-09-18T00:46:06.211Z,1010.15
2018-09-18T00:47:06.167Z,1010.11
2018-09-18T00:48:06.123Z,1010.10
2018-09-18T00:49:06.083Z,1010.12
2018-09-18T00:50:06.037Z,1010.10
2018-09-18T00:51:05.997Z,1010.14
2018-09-18T00:52:05.949Z,1010.09
2018-09-18T00:53:05.908Z,1010.14
2018-09-18T00:54:05.861Z,1010.10
2018-09-18T00:55:05.817Z,1010.12
2018-09-18T00:56:05.775Z,1010.10
2018-09-18T00:57:05.735Z,1010.11
2018-09-18T00:58:05.694Z,1010.11
2018-09-18T00:59:05.642Z,1010.03
2018-09-18T01:00:05.601Z,1010.05
2018-09-18T01:01:05.566Z,1010.03
2018-09-18T01:02:05.511Z,1010.06
2018-09-18T01:03:05.471Z,1010.06
2018-09-18T01:04:05.428Z,1010.02
2018-09-18T01:05:05.384Z,1010.02
2018-09-18T01:06:05.346Z,1010.07
2018-09-18T01:07:05.297Z,1010.10
2018-09-18T01:08:05.258Z,1010.09
2018-09-18T01:09:05.209Z,1010.03
2018-09-18T01:10:05.171Z,1010.07
2018-09-18T01:11:05.121Z,1010.05
2018-09-18T01:12:05.078Z,1010.04
2018-09-18T01:13:05.036Z,1010.07
2018-09-18T01:14:04.994Z,1010.04
2018-09-18T01:15:04.949Z,1010.03
2018-09-18T01:16:04.906Z,1010.07
2018-09-18T01:17:04.868Z,1010.00
2018-09-18T01:18:04.820Z,1010.04
2018-09-18T01:19:04.775Z,1010.03
2018-09-18T01:20:04.734Z,1009.97
2018-09-18T01:21:04.689Z,1009.97
2018-09-18T01:22:04.648Z,1009.98
2018-09-18T01:23:04.611Z,1009.96
2018-09-18T01:24:04.561Z,1009.99
2018-09-18T01:25:04.519Z,1009.98
2018-09-18T01:26:04.476Z,1009.97
2018-09-18T01:27:04.432Z,1009.95
2018-09-18T01:28:04.392Z,1009.97
2018-09-18T01:29:04.355Z,1009.96
2018-09-18T01:30:04.303Z,1009.91
2018-09-18T01:31:04.259Z,1009.99
2018-09-18T01:32:04.216Z,1009.95
2018-09-18T01:33:04.176Z,1009.92
2018-09-18T01:34:04.132Z,1009.92
2018-09-18T01:35:04.090Z,1009.94
2018-09-18T01:36:04.048Z,1009.92
2018-09-18T01:37:04.011Z,1009.92
2018-09-18T01:38:03.963Z,1009.90
2018-09-18T01:39:03.920Z,1009.90
2018-09-18T01:40:03.878Z,1009.93
2018-09-18T01:41:03.833Z,1009.88
2018-09-18T01:42:03.792Z,1009.88
2018-09-18T01:43:03.749Z,1009.86
2018-09-18T01:44:03.706Z,1009.86
2018-09-18T01:45:03.663Z,1009.87
2018-09-18T01:46:03.619Z,1009.85
2018-09-18T01:47:03.578Z,1009.88
2018-09-18T01:48:03.538Z,1009.82
2018-09-18T01:49:03.492Z,1009.86
2018-09-18T01:50:03.447Z,1009.84
2018-09-18T01:51:03.403Z,1009.85
2018-09-18T01:52:03.363Z,1009.88
2018-09-18T01:53:03.317Z,1009.83
2018-09-18T01:54:03.277Z,1009.84
2018-09-18T01:55:03.235Z,1009.76
2018-09-18T01:56:03.189Z,1009.79
2018-09-18T01:57:03.153Z,1009.78
2018-09-18T01:58:03.108Z,1009.76
2018-09-18T01:59:03.061Z,1009.77
2018-09-18T02:00:03.022Z,1009.78
2018-09-18T02:01:02.978Z,1009.74
2018-09-18T02:02:02.937Z,1009.75
2018-09-18T02:03:02.893Z,1009.73
2018-09-18T02:04:02.853Z,1009.78
2018-09-18T02:05:02.808Z,1009.77
2018-09-18T02:06:02.766Z,1009.76
2018-09-18T02:07:02.740Z,1009.76
2018-09-18T02:08:02.688Z,1009.75
2018-09-18T02:09:02.649Z,1009.74
2018-09-18T02:10:02.601Z,1009.73
2018-09-18T02:11:02.554Z,1009.74
2018-09-18T02:12:02.513Z,1009.76
2018-09-18T02:13:02.469Z,1009.76
2018-09-18T02:14:02.428Z,1009.71
2018-09-18T02:15:02.380Z,1009.69
2018-09-18T02:16:02.338Z,1009.70
2018-09-18T02:17:02.302Z,1009.69
2018-09-18T02:18:02.255Z,1009.68
2018-09-18T02:19:02.210Z,1009.67
2018-09-18T02:20:02.169Z,1009.68
2018-09-18T02:21:02.130Z,1009.65
2018-09-18T02:22:02.085Z,1009.71
2018-09-18T02:23:02.042Z,1009.65
2018-09-18T02:24:01.998Z,1009.65
2018-09-18T02:25:01.955Z,1009.62
2018-09-18T02:26:01.914Z,1009.62
2018-09-18T02:27:01.869Z,1009.66
2018-09-18T02:28:01.829Z,1009.64
2018-09-18T02:29:01.786Z,1009.57
2018-09-18T02:30:01.760Z,1009.60
2018-09-18T02:31:01.710Z,1009.56
2018-09-18T02:32:01.658Z,1009.57
2018-09-18T02:33:01.620Z,1009.56
2018-09-18T02:34:01.581Z,1009.52
2018-09-18T02:35:01.529Z,1009.57
2018-09-18T02:36:01.489Z,1009.54
2018-09-18T02:37:01.454Z,1009.54
2018-09-18T02:38:01.403Z,1009.56
2018-09-18T02:39:01.365Z,1009.54
2018-09-18T02:40:01.321Z,1009.55
2018-09-18T02:41:01.277Z,1009.56
2018-09-18T02:42:01.238Z,1009.56
2018-09-18T02:43:01.193Z,1009.56
2018-09-18T02:44:01.149Z,1009.55
2018-09-18T02:45:01.117Z,1009.56
2018-09-18T02:46:01.065Z,1009.55
2018-09-18T02:47:01.019Z,1009.53
2018-09-18T02:48:00.978Z,1009.56
2018-09-18T02:49:00.938Z,1009.55
2018-09-18T02:50:00.897Z,1009.52
2018-09-18T02:51:00.851Z,1009.53
2018-09-18T02:52:00.808Z,1009.55
2018-09-18T02:53:00.763Z,1009.55
2018-09-18T02:54:00.722Z,1009.55
2018-09-18T02:55:00.680Z,1009.55
2018-09-18T02:56:00.639Z,1009.51
2018-09-18T02:57:00.594Z,1009.57
2018-09-18T02:58:00.555Z,1009.51
2018-09-18T02:59:00.510Z,1009.50
2018-09-18T03:00:00.471Z,1009.52
2018-09-18T03:01:00.426Z,1009.48
2018-09-18T03:02:00.384Z,1009.48
2018-09-18T03:03:00.341Z,1009.51
2018-09-18T03:04:00.300Z,1009.50
2018-09-18T03:05:00.255Z,1009.57
2018-09-18T03:06:00.217Z,1009.49
2018-09-18T03:07:00.173Z,1009.52
2018-09-18T03:08:00.129Z,1009.50
2018-09-18T03:09:00.086Z,1009.45
2018-09-18T03:10:00.052Z,1009.46
2018-09-18T03:10:59.999Z,1009.42
2018-09-18T03:11:59.960Z,1009.45
2018-09-18T03:12:59.915Z,1009.38
2018-09-18T03:13:59.873Z,1009.40
2018-09-18T03:14:59.831Z,1009.39
2018-09-18T03:15:59.793Z,1009.37
2018-09-18T03:16:59.750Z,1009.41
2018-09-18T03:17:59.705Z,1009.39
2018-09-18T03:18:59.669Z,1009.35
2018-09-18T03:19:59.623Z,1009.35
2018-09-18T03:20:59.635Z,1009.36
2018-09-18T03:21:59.534Z,1009.34
2018-09-18T03:22:59.490Z,1009.29
2018-09-18T03:23:59.449Z,1009.31
2018-09-18T03:24:59.409Z,1009.32
2018-09-18T03:25:59.367Z,1009.31
2018-09-18T03:26:59.326Z,1009.30
2018-09-18T03:27:59.278Z,1009.27
2018-09-18T03:28:59.240Z,1009.32
2018-09-18T03:29:59.198Z,1009.33
2018-09-18T03:30:59.168Z,1009.31
2018-09-18T03:31:59.110Z,1009.27
2018-09-18T03:32:59.067Z,1009.28
2018-09-18T03:33:59.023Z,1009.29
2018-09-18T03:34:58.982Z,1009.26
2018-09-18T03:35:58.938Z,1009.27
2018-09-18T03:36:58.897Z,1009.29
2018-09-18T03:37:58.856Z,1009.27
2018-09-18T03:38:58.811Z,1009.24
2018-09-18T03:39:58.774Z,1009.26
2018-09-18T03:40:58.729Z,1009.23
2018-09-18T03:41:58.691Z,1009.22
2018-09-18T03:42:58.647Z,1009.19
2018-09-18T03:43:58.603Z,1009.20
2018-09-18T03:44:58.562Z,1009.21
2018-09-18T03:45:58.515Z,1009.18
2018-09-18T03:46:58.476Z,1009.16
2018-09-18T03:47:58.431Z,1009.15
2018-09-18T03:48:58.390Z,1009.15
2018-09-18T03:49:58.348Z,1009.15
2018-09-18T03:50:58.322Z,1009.12
2018-09-18T03:51:58.264Z,1009.10
2018-09-18T03:52:58.221Z,1009.09
2018-09-18T03:53:58.183Z,1009.09
2018-09-18T03:54:58.133Z,1009.08
2018-09-18T03:55:58.093Z,1009.10
2018-09-18T03:56:58.051Z,1009.10
2018-09-18T03:57:58.006Z,1009.10
2018-09-18T03:58:57.962Z,1009.09
2018-09-18T03:59:57.920Z,1009.10
2018-09-18T04:00:57.884Z,1009.08
2018-09-18T04:01:57.839Z,1009.05
2018-09-18T04:02:57.901Z,1009.09
2018-09-18T04:03:57.753Z,1009.09
2018-09-18T04:04:57.716Z,1009.08
2018-09-18T04:05:57.667Z,1009.03
2018-09-18T04:06:57.625Z,1009.08
2018-09-18T04:07:57.590Z,1009.00
2018-09-18T04:08:57.541Z,1008.97
2018-09-18T04:09:57.499Z,1009.01
2018-09-18T04:10:57.459Z,1008.97
2018-09-18T04:11:57.413Z,1008.98
2018-09-18T04:12:57.375Z,1008.94
2018-09-18T04:13:57.338Z,1008.97
2018-09-18T04:14:57.288Z,1008.93
2018-09-18T04:15:57.258Z,1008.96
2018-09-18T04:16:57.209Z,1008.94
2018-09-18T04:17:57.171Z,1008.93
2018-09-18T04:18:57.122Z,1008.91
2018-09-18T04:19:57.077Z,1008.88
2018-09-18T04:20:57.034Z,1008.92
2018-09-18T04:21:56.995Z,1008.93
2018-09-18T04:22:56.960Z,1008.93
2018-09-18T04:23:56.907Z,1008.94
2018-09-18T04:24:56.865Z,1008.94
2018-09-18T04:25:56.825Z,1008.88
2018-09-18T04:26:56.783Z,1008.92
2018-09-18T04:27:56.742Z,1008.93
2018-09-18T04:28:56.696Z,1008.87
2018-09-18T04:29:56.653Z,1008.93
2018-09-18T04:30:56.612Z,1008.89
2018-09-18T04:31:56.574Z,1008.90
2018-09-18T04:32:56.528Z,1008.88
2018-09-18T04:33:56.488Z,1008.85
2018-09-18T04:34:56.444Z,1008.82
2018-09-18T04:35:56.401Z,1008.84
2018-09-18T04:36:56.362Z,1008.81
2018-09-18T04:37:56.318Z,1008.80
2018-09-18T04:38:56.274Z,1008.79
2018-09-18T04:39:56.235Z,1008.75
2018-09-18T04:40:56.204Z,1008.75
2018-09-18T04:41:56.150Z,1008.74
2018-09-18T04:42:56.108Z,1008.77
2018-09-18T04:43:56.065Z,1008.74
2018-09-18T04:44:56.021Z,1008.75
2018-09-18T04:45:56.057Z,1008.71
2018-09-18T04:46:55.940Z,1008.69
2018-09-18T04:47:55.896Z,1008.72
2018-09-18T04:48:55.852Z,1008.69
2018-09-18T04:49:55.817Z,1008.68
2018-09-18T04:50:55.767Z,1008.73
2018-09-18T04:51:55.725Z,1008.67
2018-09-18T04:52:55.696Z,1008.68
2018-09-18T04:53:55.644Z,1008.64
2018-09-18T04:54:55.618Z,1008.65
2018-09-18T04:55:55.557Z,1008.63
2018-09-18T04:56:55.531Z,1008.64
2018-09-18T04:57:55.478Z,1008.62
2018-09-18T04:58:55.435Z,1008.60
2018-09-18T04:59:55.393Z,1008.60
2018-09-18T05:00:55.348Z,1008.58
2018-09-18T05:01:55.324Z,1008.62
2018-09-18T05:02:55.264Z,1008.60
2018-09-18T05:03:55.220Z,1008.64
2018-09-18T05:04:55.194Z,1008.64
2018-09-18T05:05:55.140Z,1008.65
2018-09-18T05:06:55.096Z,1008.63
2018-09-18T05:07:55.053Z,1008.62
2018-09-18T05:08:55.020Z,1008.71
2018-09-18T05:09:54.977Z,1008.63
2018-09-18T05:10:54.931Z,1008.62
2018-09-18T05:11:54.886Z,1008.65
2018-09-18T05:12:54.842Z,1008.69
2018-09-18T05:13:54.868Z,1008.70
2018-09-18T05:14:54.759Z,1008.66
2018-09-18T05:15:54.717Z,1008.68
2018-09-18T05:16:54.675Z,1008.72
2018-09-18T05:17:54.635Z,1008.69
2018-09-18T05:18:54.592Z,1008.67
2018-09-18T05:19:54.547Z,1008.71
2018-09-18T05:20:54.509Z,1008.72
2018-09-18T05:21:54.463Z,1008.69
2018-09-18T05:22:54.420Z,1008.71
2018-09-18T05:23:54.379Z,1008.70
2018-09-18T05:24:54.338Z,1008.74
2018-09-18T05:25:54.304Z,1008.79
2018-09-18T05:26:54.253Z,1008.75
2018-09-18T05:27:54.222Z,1008.77
2018-09-18T05:28:54.171Z,1008.76
2018-09-18T05:29:54.127Z,1008.72
2018-09-18T05:30:54.085Z,1008.73
2018-09-18T05:31:54.044Z,1008.77
2018-09-18T05:32:54.001Z,1008.73
2018-09-18T05:33:53.961Z,1008.74
2018-09-18T05:34:53.916Z,1008.76
2018-09-18T05:35:53.878Z,1008.72
2018-09-18T05:36:53.837Z,1008.74
2018-09-18T05:37:53.791Z,1008.76
2018-09-18T05:38:53.752Z,1008.72
2018-09-18T05:39:53.709Z,1008.76
2018-09-18T05:40:53.667Z,1008.71
2018-09-18T05:41:53.626Z,1008.74
2018-09-18T05:42:53.581Z,1008.72
2018-09-18T05:43:53.542Z,1008.73
2018-09-18T05:44:53.500Z,1008.77
2018-09-18T05:45:53.456Z,1008.71
2018-09-18T05:46:53.413Z,1008.75
2018-09-18T05:47:53.370Z,1008.76
2018-09-18T05:48:53.331Z,1008.74
2018-09-18T05:50:53.263Z,1008.76
2018-09-18T05:51:53.203Z,1008.79
2018-09-18T05:52:53.162Z,1008.80
2018-09-18T05:53:53.121Z,1008.78
2018-09-18T05:54:53.184Z,1008.75
2018-09-18T05:55:53.036Z,1008.73
2018-09-18T05:56:52.994Z,1008.74
2018-09-18T05:57:52.954Z,1008.79
2018-09-18T05:58:52.909Z,1008.75
2018-09-18T05:59:52.867Z,1008.82
2018-09-18T06:00:52.831Z,1008.77
2018-09-18T06:01:52.790Z,1008.82
2018-09-18T06:02:52.750Z,1008.82
2018-09-18T06:03:52.700Z,1008.75
2018-09-18T06:04:52.657Z,1008.75
2018-09-18T06:05:52.619Z,1008.76
2018-09-18T06:06:52.574Z,1008.78
2018-09-18T06:07:52.532Z,1008.76
2018-09-18T06:08:52.500Z,1008.75
2018-09-18T06:09:52.452Z,1008.73
2018-09-18T06:10:52.407Z,1008.76
2018-09-18T06:11:52.365Z,1008.78
2018-09-18T06:12:52.325Z,1008.75
2018-09-18T06:13:52.282Z,1008.75
2018-09-18T06:14:52.239Z,1008.76
2018-09-18T06:15:52.197Z,1008.78
2018-09-18T06:16:52.157Z,1008.80
2018-09-18T06:17:52.117Z,1008.77
2018-09-18T06:18:52.105Z,1008.83
2018-09-18T06:19:52.034Z,1008.84
2018-09-18T06:20:51.989Z,1008.84
2018-09-18T06:21:51.946Z,1008.80
2018-09-18T06:22:51.905Z,1008.81
2018-09-18T06:23:51.863Z,1008.82
2018-09-18T06:24:51.821Z,1008.83
2018-09-18T06:25:51.779Z,1008.83
2018-09-18T06:26:51.738Z,1008.81
2018-09-18T06:27:51.696Z,1008.83
2018-09-18T06:28:51.654Z,1008.85
2018-09-18T06:29:51.614Z,1008.78
2018-09-18T06:30:51.569Z,1008.85
2018-09-18T06:31:51.529Z,1008.77
2018-09-18T06:32:51.525Z,1008.84
2018-09-18T06:33:51.458Z,1008.81
2018-09-18T06:34:51.431Z,1008.82
2018-09-18T06:35:51.384Z,1008.80
2018-09-18T06:36:51.349Z,1008.84
2018-09-18T06:37:51.280Z,1008.82
2018-09-18T06:38:51.238Z,1008.81
2018-09-18T06:39:51.196Z,1008.84
2018-09-18T06:40:51.155Z,1008.81
2018-09-18T06:41:51.114Z,1008.88
2018-09-18T06:42:51.075Z,1008.87
2018-09-18T06:43:51.033Z,1008.91
2018-09-18T06:44:50.987Z,1008.83
2018-09-18T06:45:51.075Z,1008.88
2018-09-18T06:46:50.904Z,1008.86
2018-09-18T06:47:50.928Z,1008.86
2018-09-18T06:48:50.840Z,1008.85
2018-09-18T06:49:50.782Z,1008.86
2018-09-18T06:50:50.739Z,1008.78
2018-09-18T06:51:50.696Z,1008.85
2018-09-18T06:52:50.657Z,1008.82
2018-09-18T06:53:50.617Z,1008.83
2018-09-18T06:54:50.576Z,1008.84
2018-09-18T06:55:50.535Z,1008.80
2018-09-18T06:56:50.496Z,1008.83
2018-09-18T06:57:50.457Z,1008.83
2018-09-18T06:58:50.412Z,1008.82
2018-09-18T06:59:50.370Z,1008.78
2018-09-18T07:00:50.330Z,1008.81
2018-09-18T07:01:50.290Z,1008.72
2018-09-18T07:02:50.247Z,1008.73
2018-09-18T07:03:50.205Z,1008.74
2018-09-18T07:04:50.165Z,1008.74
2018-09-18T07:05:50.124Z,1008.78
2018-09-18T07:06:50.092Z,1008.78
2018-09-18T07:07:50.044Z,1008.76
2018-09-18T07:08:50.008Z,1008.74
2018-09-18T07:09:49.963Z,1008.72
2018-09-18T07:10:49.922Z,1008.76
2018-09-18T07:11:49.883Z,1008.77
2018-09-18T07:12:49.843Z,1008.76
2018-09-18T07:13:49.802Z,1008.74
2018-09-18T07:14:49.763Z,1008.75
2018-09-18T07:15:49.720Z,1008.69
2018-09-18T07:16:49.681Z,1008.70
2018-09-18T07:17:49.644Z,1008.74
2018-09-18T07:18:49.599Z,1008.70
2018-09-18T07:19:49.561Z,1008.75
2018-09-18T07:20:49.525Z,1008.77
2018-09-18T07:21:49.488Z,1008.76
2018-09-18T07:22:49.444Z,1008.74
2018-09-18T07:23:49.402Z,1008.79
2018-09-18T07:24:49.425Z,1008.78
2018-09-18T07:25:49.326Z,1008.78
2018-09-18T07:26:49.280Z,1008.77
2018-09-18T07:27:49.251Z,1008.80
2018-09-18T07:28:49.203Z,1008.79
2018-09-18T07:29:49.162Z,1008.82
2018-09-18T07:30:49.123Z,1008.78
2018-09-18T07:31:49.085Z,1008.75
2018-09-18T07:32:49.044Z,1008.80
2018-09-18T07:33:49.061Z,1008.74
2018-09-18T07:34:48.964Z,1008.78
2018-09-18T07:35:48.927Z,1008.73
2018-09-18T07:36:48.886Z,1008.77
2018-09-18T07:37:48.850Z,1008.76
2018-09-18T07:38:48.805Z,1008.74
2018-09-18T07:39:48.767Z,1008.76
2018-09-18T07:40:48.726Z,1008.76
2018-09-18T07:41:48.689Z,1008.76
2018-09-18T07:42:48.653Z,1008.73
2018-09-18T07:43:48.609Z,1008.77
2018-09-18T07:44:48.573Z,1008.79
2018-09-18T07:45:48.531Z,1008.74
2018-09-18T07:46:48.490Z,1008.75
2018-09-18T07:47:48.452Z,1008.68
2018-09-18T07:48:48.413Z,1008.70
2018-09-18T07:49:48.372Z,1008.74
2018-09-18T07:50:48.334Z,1008.75
2018-09-18T07:51:48.303Z,1008.74
2018-09-18T07:52:48.257Z,1008.76
2018-09-18T07:53:48.216Z,1008.73
2018-09-18T07:54:48.178Z,1008.75
2018-09-18T07:55:48.138Z,1008.72
2018-09-18T07:56:48.102Z,1008.72
2018-09-18T07:57:48.062Z,1008.76
2018-09-18T07:58:48.022Z,1008.72
2018-09-18T07:59:47.982Z,1008.71
2018-09-18T08:00:47.945Z,1008.69
2018-09-18T08:01:47.907Z,1008.74
2018-09-18T08:02:47.866Z,1008.74
2018-09-18T08:03:47.828Z,1008.72
2018-09-18T08:04:47.789Z,1008.73
2018-09-18T08:05:47.754Z,1008.69
2018-09-18T08:06:47.716Z,1008.75
2018-09-18T08:07:47.673Z,1008.75
2018-09-18T08:08:47.637Z,1008.75
2018-09-18T08:09:47.600Z,1008.73
2018-09-18T08:10:47.611Z,1008.72
2018-09-18T08:11:47.517Z,1008.70
2018-09-18T08:12:47.481Z,1008.66
2018-09-18T08:13:47.446Z,1008.71
2018-09-18T08:14:47.413Z,1008.66
2018-09-18T08:15:47.365Z,1008.67
2018-09-18T08:16:47.327Z,1008.70
2018-09-18T08:17:47.290Z,1008.69
2018-09-18T08:18:47.257Z,1008.69
2018-09-18T08:19:47.389Z,1008.69
2018-09-18T08:20:47.180Z,1008.71
2018-09-18T08:21:47.137Z,1008.72
2018-09-18T08:22:47.096Z,1008.72
2018-09-18T08:23:47.063Z,1008.64
2018-09-18T08:24:47.026Z,1008.74
2018-09-18T08:25:47.136Z,1008.70
2018-09-18T08:26:46.945Z,1008.74
2018-09-18T08:27:46.909Z,1008.77
2018-09-18T08:28:46.872Z,1008.80
2018-09-18T08:29:46.844Z,1008.83
2018-09-18T08:30:46.796Z,1008.85
2018-09-18T08:31:46.762Z,1008.81
2018-09-18T08:32:46.751Z,1008.84
2018-09-18T08:33:46.690Z,1008.80
2018-09-18T08:34:46.649Z,1008.84
2018-09-18T08:35:46.610Z,1008.85
2018-09-18T08:36:46.580Z,1008.86
2018-09-18T08:37:46.536Z,1008.81
2018-09-18T08:38:46.500Z,1008.82
2018-09-18T08:39:46.582Z,1008.86
2018-09-18T08:40:46.430Z,1008.86
2018-09-18T08:41:46.390Z,1008.87
2018-09-18T08:42:46.352Z,1008.89
2018-09-18T08:43:46.336Z,1008.91
2018-09-18T08:44:46.301Z,1008.91
2018-09-18T08:45:46.244Z,1008.90
2018-09-18T08:46:46.205Z,1008.92
2018-09-18T08:47:46.171Z,1008.93
2018-09-18T08:48:46.156Z,1008.95
2018-09-18T08:49:46.111Z,1008.94
2018-09-18T08:50:46.084Z,1008.95
2018-09-18T08:51:46.027Z,1008.98
2018-09-18T08:52:46.016Z,1008.97
2018-09-18T08:53:45.952Z,1008.93
2018-09-18T08:54:45.949Z,1008.96
2018-09-18T08:55:45.907Z,1008.99
2018-09-18T08:56:45.855Z,1008.95
2018-09-18T08:57:45.803Z,1009.02
2018-09-18T08:58:45.769Z,1009.00
2018-09-18T08:59:45.737Z,1009.01
2018-09-18T09:00:45.696Z,1009.02
2018-09-18T09:01:45.661Z,1008.99
2018-09-18T09:02:45.623Z,1008.99
2018-09-18T09:03:45.590Z,1008.98
2018-09-18T09:04:45.597Z,1009.03
2018-09-18T09:05:45.513Z,1009.02
2018-09-18T09:06:45.476Z,1009.07
2018-09-18T09:07:45.552Z,1009.06
2018-09-18T09:08:45.510Z,1009.08
2018-09-18T09:09:45.374Z,1009.07
2018-09-18T09:10:45.332Z,1009.07
2018-09-18T09:11:45.324Z,1009.07
2018-09-18T09:12:45.256Z,1009.09
2018-09-18T09:13:45.241Z,1009.03
2018-09-18T09:14:45.246Z,1009.04
2018-09-18T09:15:45.161Z,1009.03
2018-09-18T09:16:45.114Z,1009.05
2018-09-18T09:17:45.083Z,1009.04
2018-09-18T09:18:45.063Z,1008.99
2018-09-18T09:19:45.004Z,1009.02
2018-09-18T09:20:44.974Z,1009.03
2018-09-18T09:21:44.997Z,1009.01
2018-09-18T09:22:44.957Z,1008.97
2018-09-18T09:23:44.867Z,1009.05
2018-09-18T09:24:44.819Z,1009.02
2018-09-18T09:25:44.784Z,1009.00
2018-09-18T09:26:44.833Z,1009.03
2018-09-18T09:27:44.726Z,1009.01
2018-09-18T09:28:44.674Z,1009.00
2018-09-18T09:29:44.763Z,1009.02
2018-09-18T09:30:44.600Z,1009.06
2018-09-18T09:31:44.565Z,1009.09
2018-09-18T09:32:44.539Z,1009.11
2018-09-18T09:33:44.498Z,1009.13
2018-09-18T09:34:44.455Z,1009.12
2018-09-18T09:35:44.421Z,1009.13
2018-09-18T09:36:44.437Z,1009.17
2018-09-18T09:37:44.349Z,1009.12
2018-09-18T09:38:44.320Z,1009.10
2018-09-18T09:39:44.272Z,1009.13
2018-09-18T09:40:44.237Z,1009.11
2018-09-18T09:41:44.200Z,1009.08
2018-09-18T09:42:44.163Z,1009.09
2018-09-18T09:43:44.199Z,1009.11
2018-09-18T09:44:44.091Z,1009.07
2018-09-18T09:45:44.058Z,1009.06
2018-09-18T09:46:44.017Z,1009.09
2018-09-18T09:47:43.983Z,1009.10
2018-09-18T09:48:43.946Z,1009.10
2018-09-18T09:49:43.911Z,1009.08
2018-09-18T09:50:43.871Z,1009.09
2018-09-18T09:51:43.839Z,1009.11
2018-09-18T09:52:43.800Z,1009.09
2018-09-18T09:53:43.765Z,1009.13
2018-09-18T09:54:43.729Z,1009.12
2018-09-18T09:55:43.695Z,1009.14
2018-09-18T09:56:43.662Z,1009.14
2018-09-18T09:57:43.619Z,1009.14
2018-09-18T09:58:43.580Z,1009.09
2018-09-18T09:59:43.546Z,1009.17
2018-09-18T10:00:43.510Z,1009.12
2018-09-18T10:01:43.475Z,1009.08
2018-09-18T10:02:43.451Z,1009.11
2018-09-18T10:03:43.402Z,1009.12
2018-09-18T10:04:43.366Z,1009.16
2018-09-18T10:05:43.334Z,1009.10
2018-09-18T10:06:43.293Z,1009.11
2018-09-18T10:07:43.283Z,1009.08
2018-09-18T10:08:43.220Z,1009.15
2018-09-18T10:09:43.189Z,1009.07
2018-09-18T10:10:43.273Z,1009.11
2018-09-18T10:11:43.112Z,1009.10
2018-09-18T10:12:43.078Z,1009.15
2018-09-18T10:13:43.061Z,1009.15
2018-09-18T10:14:43.035Z,1009.15
2018-09-18T10:15:43.000Z,1009.14
2018-09-18T10:16:42.939Z,1009.08
2018-09-18T10:17:42.922Z,1009.06
2018-09-18T10:18:42.860Z,1009.02
2018-09-18T10:19:42.824Z,1009.09
2018-09-18T10:20:42.788Z,1008.98
2018-09-18T10:21:42.751Z,1008.97
2018-09-18T10:22:42.718Z,1009.01
2018-09-18T10:23:42.687Z,1008.99
2018-09-18T10:24:42.649Z,1009.05
2018-09-18T10:25:42.608Z,1009.04
2018-09-18T10:26:42.622Z,1008.99
2018-09-18T10:27:42.561Z,1009.02
2018-09-18T10:28:42.618Z,1009.00
2018-09-18T10:29:42.486Z,1009.05
2018-09-18T10:30:42.453Z,1009.03
2018-09-18T10:31:42.395Z,1009.01
2018-09-18T10:32:42.412Z,1008.92
2018-09-18T10:33:42.319Z,1008.93
2018-09-18T10:34:42.283Z,1008.98
2018-09-18T10:35:42.274Z,1008.91
2018-09-18T10:36:42.239Z,1008.93
2018-09-18T10:37:42.180Z,1009.02
2018-09-18T10:38:42.138Z,1009.01
2018-09-18T10:39:42.117Z,1008.97
2018-09-18T10:40:42.074Z,1008.94
2018-09-18T10:41:42.084Z,1008.92
2018-09-18T10:42:41.997Z,1008.97
2018-09-18T10:43:41.984Z,1008.91
2018-09-18T10:44:41.938Z,1008.96
2018-09-18T10:45:41.902Z,1008.93
2018-09-18T10:46:41.871Z,1008.94
2018-09-18T10:47:41.831Z,1008.95
2018-09-18T10:48:41.801Z,1008.86
2018-09-18T10:49:41.745Z,1008.86
2018-09-18T10:50:41.712Z,1008.88
2018-09-18T10:51:41.676Z,1008.85
2018-09-18T10:52:41.637Z,1008.80
2018-09-18T10:53:41.600Z,1008.81
2018-09-18T10:54:41.564Z,1008.77
2018-09-18T10:55:41.531Z,1008.78
2018-09-18T10:56:41.497Z,1008.77
2018-09-18T10:57:41.456Z,1008.73
2018-09-18T10:58:41.421Z,1008.76
2018-09-18T10:59:41.387Z,1008.77
2018-09-18T11:00:41.371Z,1008.74
2018-09-18T11:01:41.312Z,1008.74
2018-09-18T11:02:41.280Z,1008.71
2018-09-18T11:03:41.272Z,1008.74
2018-09-18T11:04:41.220Z,1008.65
2018-09-18T11:05:41.172Z,1008.68
2018-09-18T11:06:41.143Z,1008.78
2018-09-18T11:07:41.138Z,1008.60
2018-09-18T11:08:41.062Z,1008.56
2018-09-18T11:09:41.105Z,1008.55
2018-09-18T11:10:40.993Z,1008.51
2018-09-18T11:11:40.984Z,1008.50
2018-09-18T11:12:40.917Z,1008.48
2018-09-18T11:13:40.892Z,1008.49
2018-09-18T11:14:40.884Z,1008.53
2018-09-18T11:15:40.814Z,1008.50
2018-09-18T11:16:40.791Z,1008.55
2018-09-18T11:17:40.746Z,1008.50
2018-09-18T11:18:40.725Z,1008.49
2018-09-18T11:19:40.752Z,1008.46
2018-09-18T11:20:40.635Z,1008.53
2018-09-18T11:21:40.655Z,1008.51
2018-09-18T11:22:40.567Z,1008.47
2018-09-18T11:23:40.645Z,1008.47
2018-09-18T11:24:40.501Z,1008.50
2018-09-18T11:25:40.459Z,1008.53
2018-09-18T11:26:40.417Z,1008.51
2018-09-18T11:27:40.399Z,1008.50
2018-09-18T11:28:40.382Z,1008.52
2018-09-18T11:29:40.309Z,1008.60
2018-09-18T11:30:40.276Z,1008.55
2018-09-18T11:31:40.284Z,1008.50
2018-09-18T11:32:40.205Z,1008.51
2018-09-18T11:33:40.167Z,1008.51
2018-09-18T11:34:40.130Z,1008.49
2018-09-18T11:35:40.095Z,1008.45
2018-09-18T11:36:40.061Z,1008.56
2018-09-18T11:37:40.024Z,1008.58
2018-09-18T11:38:39.987Z,1008.56
2018-09-18T11:39:39.953Z,1008.50
2018-09-18T11:40:39.918Z,1008.44
2018-09-18T11:41:39.881Z,1008.51
2018-09-18T11:42:39.843Z,1008.50
2018-09-18T11:43:39.808Z,1008.49
2018-09-18T11:44:39.772Z,1008.50
2018-09-18T11:45:39.831Z,1008.49
2018-09-18T11:46:39.775Z,1008.55
2018-09-18T11:47:39.663Z,1008.57
2018-09-18T11:48:39.629Z,1008.58
2018-09-18T11:49:40.197Z,1008.57
2018-09-18T11:50:39.556Z,1008.59
2018-09-18T11:51:39.523Z,1008.58
2018-09-18T11:52:39.492Z,1008.58
2018-09-18T11:53:39.454Z,1008.52
2018-09-18T11:54:39.414Z,1008.55
2018-09-18T11:55:39.377Z,1008.45
2018-09-18T11:56:39.357Z,1008.47
2018-09-18T11:57:39.304Z,1008.45
2018-09-18T11:58:39.270Z,1008.44
2018-09-18T11:59:39.234Z,1008.42
2018-09-18T12:00:39.202Z,1008.42
2018-09-18T12:01:39.163Z,1008.44
2018-09-18T12:02:39.138Z,1008.39
2018-09-18T12:03:39.096Z,1008.32
2018-09-18T12:04:39.118Z,1008.37
2018-09-18T12:05:39.023Z,1008.38